Time;durP1;ratioP1;P1;durP2;ratioP2;P2;SDS_P1;SDS_P2;PMS_P1;PMS_P2;Temp;Humidity;BMP_temperature;BMP_pressure;BME280_temperature;BME280_humidity;BME280_pressure;Samples;Min_cycle;Max_cycle;Signal;HPM_P1;HPM_P2
2022/06/11 00:00:20;;;;;;;;;;;;;;;16.88;49.07;101225.69;4975190;28;98663;-68
2022/06/11 00:02:49;;;;;;;;;;;;;;;16.84;48.90;101229.28;4986533;27;97962;-63
2022/06/11 00:05:14;;;;;;;;;;;;;;;16.81;48.97;101229.88;4989133;27;98283;-67
2022/06/11 00:07:42;;;;;;;;;;;;;;;16.76;49.37;101236.19;4979915;28;128322;-63
2022/06/11 00:10:09;;;;;;;;;;;;;;;16.71;49.19;101230.78;4985521;28;99535;-67
2022/06/11 00:12:35;;;;;;;;;;;;;;;16.67;49.37;101227.03;4987089;27;99900;-67
2022/06/11 00:15:02;;;;;;;;;;;;;;;16.67;49.38;101232.47;4995866;28;117874;-67
2022/06/11 00:17:28;;;;;;;;;;;;;;;16.65;49.52;101227.28;4987087;27;99226;-67
2022/06/11 00:19:58;;;;;;;;;;;;;;;16.64;49.80;101224.88;4989177;28;124311;-63
2022/06/11 00:22:24;;;;;;;;;;;;;;;16.61;49.61;101228.97;4988637;27;98728;-62
2022/06/11 00:24:50;;;;;;;;;;;;;;;16.58;49.58;101234.19;4986970;28;97953;-67
2022/06/11 00:27:16;;;;;;;;;;;;;;;16.54;49.67;101239.38;4977238;28;111325;-67
2022/06/11 00:29:42;;;;;;;;;;;;;;;16.51;49.97;101234.53;4981248;28;125394;-63
2022/06/11 00:32:08;;;;;;;;;;;;;;;16.48;49.82;101231.59;4984254;28;97951;-67
2022/06/11 00:34:34;;;;;;;;;;;;;;;16.44;50.11;101239.50;4986128;27;97828;-62
2022/06/11 00:37:00;;;;;;;;;;;;;;;16.42;50.03;101236.25;4985302;28;98417;-62
2022/06/11 00:39:28;;;;;;;;;;;;;;;16.39;49.85;101239.56;4984959;28;128559;-67
2022/06/11 00:41:58;;;;;;;;;;;;;;;16.35;50.20;101235.81;4979158;27;125142;-63
2022/06/11 00:44:24;;;;;;;;;;;;;;;16.31;50.30;101234.72;4986729;27;97739;-62
2022/06/11 00:47:18;;;;;;;;;;;;;;;16.29;49.95;101234.22;4988884;28;128050;-65
2022/06/11 00:49:53;;;;;;;;;;;;;;;16.25;50.52;101225.81;4981642;28;98897;-68
2022/06/11 00:52:29;;;;;;;;;;;;;;;16.21;50.28;101227.50;4979485;28;97994;-62
2022/06/11 00:54:59;;;;;;;;;;;;;;;16.18;50.63;101220.69;4967306;28;98121;-62
2022/06/11 00:57:27;;;;;;;;;;;;;;;16.14;50.34;101219.66;4967034;28;98608;-63
2022/06/11 00:59:59;;;;;;;;;;;;;;;16.11;50.58;101224.84;4967346;28;98956;-63
2022/06/11 01:02:25;;;;;;;;;;;;;;;16.08;50.46;101220.81;4989584;27;117513;-67
2022/06/11 01:04:54;;;;;;;;;;;;;;;16.03;50.67;101212.69;4971237;27;97727;-67
2022/06/11 01:07:23;;;;;;;;;;;;;;;15.97;50.59;101208.41;4969293;28;97918;-66
2022/06/11 01:10:12;;;;;;;;;;;;;;;15.90;51.14;101214.16;4983205;27;98306;-63
2022/06/11 01:12:50;;;;;;;;;;;;;;;15.84;51.21;101220.75;4987572;27;122474;-68
2022/06/11 01:15:30;;;;;;;;;;;;;;;15.78;51.04;101223.78;4972894;28;97882;-67
2022/06/11 01:18:22;;;;;;;;;;;;;;;15.73;50.99;101224.63;4986141;28;98309;-63
2022/06/11 01:21:07;;;;;;;;;;;;;;;15.70;51.08;101228.72;4994191;28;98671;-67
2022/06/11 01:23:39;;;;;;;;;;;;;;;15.69;51.15;101218.97;4990992;27;98321;-67
2022/06/11 01:26:22;;;;;;;;;;;;;;;15.68;51.34;101220.06;4991430;28;97961;-66
2022/06/11 01:28:57;;;;;;;;;;;;;;;15.65;51.64;101223.34;4978616;28;127801;-66
2022/06/11 01:31:56;;;;;;;;;;;;;;;15.64;51.46;101227.13;4984507;28;98213;-67
2022/06/11 01:34:35;;;;;;;;;;;;;;;15.61;51.28;101222.25;4980912;27;99378;-67
2022/06/11 01:37:10;;;;;;;;;;;;;;;15.58;51.67;101222.00;4952012;28;108625;-65
2022/06/11 01:40:16;;;;;;;;;;;;;;;15.54;51.37;101219.03;4974883;28;99147;-66
2022/06/11 01:42:52;;;;;;;;;;;;;;;15.50;51.48;101214.44;4939544;28;98294;-63
2022/06/11 01:45:21;;;;;;;;;;;;;;;15.47;51.40;101215.81;4959867;28;98103;-66
2022/06/11 01:47:47;;;;;;;;;;;;;;;15.44;51.48;101214.50;4953957;28;97938;-66
2022/06/11 01:50:16;;;;;;;;;;;;;;;15.43;51.88;101222.91;4982459;28;98443;-67
2022/06/11 01:52:51;;;;;;;;;;;;;;;15.40;51.79;101220.75;4967154;28;98355;-67
2022/06/11 01:55:38;;;;;;;;;;;;;;;15.35;51.68;101220.78;4977788;28;98296;-66
2022/06/11 01:58:28;;;;;;;;;;;;;;;15.31;52.05;101223.25;4993137;28;98420;-63
2022/06/11 02:01:08;;;;;;;;;;;;;;;15.26;52.25;101230.63;4992756;27;98602;-65
2022/06/11 02:03:59;;;;;;;;;;;;;;;15.20;52.23;101218.97;4969713;28;98919;-63
2022/06/11 02:06:55;;;;;;;;;;;;;;;15.14;52.27;101225.53;4969718;28;124198;-66
2022/06/11 02:09:33;;;;;;;;;;;;;;;15.08;52.05;101227.44;4975045;27;109078;-66
2022/06/11 02:12:10;;;;;;;;;;;;;;;15.04;52.25;101229.09;4969844;28;100345;-67
2022/06/11 02:14:49;;;;;;;;;;;;;;;15.02;52.50;101225.03;5013097;27;98242;-66
2022/06/11 02:17:19;;;;;;;;;;;;;;;14.99;52.31;101223.69;4997088;28;124461;-67
2022/06/11 02:19:54;;;;;;;;;;;;;;;14.96;52.31;101222.34;4998330;28;97081;-67
2022/06/11 02:22:42;;;;;;;;;;;;;;;14.96;52.72;101230.47;5008187;28;99081;-62
2022/06/11 02:25:18;;;;;;;;;;;;;;;14.95;52.61;101222.63;5016640;28;98113;-62
2022/06/11 02:27:44;;;;;;;;;;;;;;;14.94;52.99;101234.56;4984311;28;97688;-62
2022/06/11 02:30:12;;;;;;;;;;;;;;;14.91;53.02;101235.94;5015292;28;110469;-66
2022/06/11 02:32:38;;;;;;;;;;;;;;;14.88;52.95;101236.47;5004617;28;105251;-65
2022/06/11 02:35:08;;;;;;;;;;;;;;;14.83;52.70;101239.22;4998266;28;126839;-67
2022/06/11 02:37:37;;;;;;;;;;;;;;;14.78;52.68;101241.16;4998481;28;97185;-66
2022/06/11 02:40:08;;;;;;;;;;;;;;;14.72;53.00;101238.44;4998758;28;117104;-62
2022/06/11 02:42:34;;;;;;;;;;;;;;;14.69;52.84;101238.97;5009944;28;98577;-66
2022/06/11 02:45:00;;;;;;;;;;;;;;;14.67;53.29;101237.66;5019388;27;97997;-63
2022/06/11 02:47:26;;;;;;;;;;;;;;;14.63;53.23;101239.28;5017626;28;121186;-63
2022/06/11 02:49:52;;;;;;;;;;;;;;;14.60;53.47;101237.13;5003066;27;97476;-63
2022/06/11 02:52:20;;;;;;;;;;;;;;;14.58;53.44;101240.13;5013733;27;97753;-66
2022/06/11 02:54:47;;;;;;;;;;;;;;;14.56;53.21;101242.28;5013041;28;97993;-66
2022/06/11 02:57:14;;;;;;;;;;;;;;;14.55;53.19;101240.66;5018020;27;98191;-63
2022/06/11 02:59:41;;;;;;;;;;;;;;;14.56;53.31;101250.44;5018976;28;96899;-67
2022/06/11 03:02:07;;;;;;;;;;;;;;;14.59;53.54;101252.59;5011172;27;98661;-63
2022/06/11 03:04:33;;;;;;;;;;;;;;;14.58;53.59;101250.97;4997716;28;121845;-62
2022/06/11 03:07:00;;;;;;;;;;;;;;;14.58;53.22;101245.56;4997644;28;127191;-66
2022/06/11 03:09:29;;;;;;;;;;;;;;;14.57;53.33;101254.75;4999013;28;97332;-67
2022/06/11 03:11:55;;;;;;;;;;;;;;;14.57;53.14;101252.03;5004008;28;98665;-62
2022/06/11 03:14:21;;;;;;;;;;;;;;;14.57;53.64;101245.81;5017525;28;120458;-66
2022/06/11 03:16:47;;;;;;;;;;;;;;;14.57;53.38;101257.47;5018130;28;127094;-66
2022/06/11 03:19:13;;;;;;;;;;;;;;;14.57;53.37;101254.75;5017419;27;97489;-63
2022/06/11 03:21:40;;;;;;;;;;;;;;;14.59;53.74;101249.06;5016473;28;123405;-62
2022/06/11 03:24:06;;;;;;;;;;;;;;;14.62;53.52;101259.34;5016392;28;113109;-66
2022/06/11 03:26:32;;;;;;;;;;;;;;;14.63;53.40;101250.97;5011131;27;97972;-62
2022/06/11 03:28:58;;;;;;;;;;;;;;;14.67;53.37;101262.06;4999268;28;115411;-62
2022/06/11 03:31:24;;;;;;;;;;;;;;;14.69;53.38;101257.97;4997782;28;127785;-62
2022/06/11 03:33:50;;;;;;;;;;;;;;;14.71;53.43;101258.53;5017380;27;127820;-62
2022/06/11 03:36:16;;;;;;;;;;;;;;;14.74;53.46;101251.75;5017382;28;126936;-66
2022/06/11 03:38:42;;;;;;;;;;;;;;;14.75;53.38;101261.50;5018455;27;101854;-62
2022/06/11 03:41:08;;;;;;;;;;;;;;;14.77;53.48;101261.22;5014428;28;120607;-62
2022/06/11 03:43:34;;;;;;;;;;;;;;;14.77;53.97;101267.47;5014162;27;124078;-62
2022/06/11 03:46:00;;;;;;;;;;;;;;;14.76;53.98;101268.56;4997415;28;126218;-67
2022/06/11 03:48:28;;;;;;;;;;;;;;;14.74;53.60;101268.03;4997240;28;111909;-66
2022/06/11 03:50:55;;;;;;;;;;;;;;;14.74;53.72;101262.59;4998374;28;99222;-63
2022/06/11 03:53:21;;;;;;;;;;;;;;;14.77;53.66;101266.66;4997703;28;105870;-66
2022/06/11 03:55:47;;;;;;;;;;;;;;;14.80;53.66;101271.53;4997001;28;126024;-66
2022/06/11 03:58:13;;;;;;;;;;;;;;;14.84;53.67;101278.84;4997515;28;118301;-66
2022/06/11 04:03:23;;;;;;;;;;;;;;;14.94;53.51;101276.09;5001229;28;97672;-62
2022/06/11 04:05:49;;;;;;;;;;;;;;;15.02;53.61;101271.19;4997526;28;127348;-66
2022/06/11 04:08:16;;;;;;;;;;;;;;;15.09;53.85;101280.66;4998063;28;115498;-66
2022/06/11 04:10:42;;;;;;;;;;;;;;;15.24;53.54;101277.06;5012410;28;98707;-66
2022/06/11 04:13:08;;;;;;;;;;;;;;;15.40;53.33;101278.59;5009102;28;126945;-66
2022/06/11 04:15:35;;;;;;;;;;;;;;;15.54;53.36;101275.28;5017718;27;98026;-62
2022/06/11 04:18:01;;;;;;;;;;;;;;;15.65;53.21;101274.16;5017641;28;97413;-61
2022/06/11 04:20:27;;;;;;;;;;;;;;;15.74;53.20;101269.75;5015837;28;98567;-66
2022/06/11 04:22:53;;;;;;;;;;;;;;;15.84;52.93;101272.41;5012976;28;127528;-62
2022/06/11 04:25:19;;;;;;;;;;;;;;;15.94;53.05;101279.66;4995743;28;125192;-62
2022/06/11 04:27:45;;;;;;;;;;;;;;;16.07;52.93;101279.03;4988349;28;97544;-62
2022/06/11 04:30:16;;;;;;;;;;;;;;;16.19;53.02;101281.34;4996438;28;125794;-66
2022/06/11 04:32:42;;;;;;;;;;;;;;;16.29;52.69;101281.28;5009462;28;126758;-62
2022/06/11 04:35:08;;;;;;;;;;;;;;;16.40;52.80;101280.09;5020526;28;127194;-66
2022/06/11 04:37:34;;;;;;;;;;;;;;;16.51;52.64;101280.00;5019361;28;98104;-66
2022/06/11 04:40:00;;;;;;;;;;;;;;;16.59;52.57;101280.16;5018358;27;126550;-62
2022/06/11 04:42:27;;;;;;;;;;;;;;;16.68;52.46;101281.16;5014264;28;98310;-66
2022/06/11 04:44:53;;;;;;;;;;;;;;;16.79;52.54;101283.81;4997647;28;119191;-61
2022/06/11 04:47:21;;;;;;;;;;;;;;;16.87;52.74;101275.81;4998978;28;116077;-63
2022/06/11 04:49:47;;;;;;;;;;;;;;;16.96;52.80;101275.97;5016404;27;97464;-61
2022/06/11 04:52:13;;;;;;;;;;;;;;;17.06;52.67;101275.06;5000901;28;98486;-61
2022/06/11 04:54:39;;;;;;;;;;;;;;;17.14;52.59;101272.50;4999626;28;125602;-62
2022/06/11 04:57:06;;;;;;;;;;;;;;;17.28;52.62;101274.50;5001256;28;97011;-61
2022/06/11 04:59:32;;;;;;;;;;;;;;;17.42;52.22;101278.13;5012776;28;127414;-62
2022/06/11 05:01:59;;;;;;;;;;;;;;;17.56;52.11;101278.19;5017899;27;98586;-66
2022/06/11 05:04:25;;;;;;;;;;;;;;;17.71;51.83;101274.44;5000296;28;114135;-66
2022/06/11 05:06:51;;;;;;;;;;;;;;;17.86;51.68;101274.25;5001737;28;97556;-66
2022/06/11 05:09:17;;;;;;;;;;;;;;;18.03;51.58;101290.06;5001254;28;101180;-62
2022/06/11 05:11:43;;;;;;;;;;;;;;;18.19;51.41;101283.22;4999996;28;113262;-62
2022/06/11 05:14:09;;;;;;;;;;;;;;;18.36;51.26;101282.69;5013394;28;125896;-61
2022/06/11 05:16:35;;;;;;;;;;;;;;;18.53;50.96;101282.91;4995095;28;115056;-62
2022/06/11 05:19:01;;;;;;;;;;;;;;;18.71;50.75;101281.25;4993296;28;127542;-62
2022/06/11 05:21:27;;;;;;;;;;;;;;;18.89;50.66;101291.25;4994303;28;126328;-66
2022/06/11 05:23:53;;;;;;;;;;;;;;;19.07;50.44;101284.09;5000742;28;126701;-62
2022/06/11 05:26:23;;;;;;;;;;;;;;;19.27;50.00;101296.50;4993589;28;116001;-62
2022/06/11 05:28:50;;;;;;;;;;;;;;;19.48;50.01;101293.34;4994733;28;126237;-66
2022/06/11 05:31:16;;;;;;;;;;;;;;;19.69;49.65;101293.72;4992505;28;99137;-66
2022/06/11 05:33:42;;;;;;;;;;;;;;;19.92;49.43;101300.81;4990028;28;127104;-61
2022/06/11 05:36:08;;;;;;;;;;;;;;;20.19;49.06;101299.09;4995492;28;97646;-66
2022/06/11 05:38:34;;;;;;;;;;;;;;;20.48;48.74;101304.09;4993313;28;123843;-66
2022/06/11 05:41:00;;;;;;;;;;;;;;;20.79;48.11;101304.13;4993344;28;125503;-66
2022/06/11 05:43:26;;;;;;;;;;;;;;;21.11;47.80;101297.47;4994182;28;98064;-62
2022/06/11 05:45:52;;;;;;;;;;;;;;;21.62;47.28;101292.44;4992550;28;97855;-61
2022/06/11 05:48:20;;;;;;;;;;;;;;;23.92;43.32;101296.84;4990354;28;102193;-62
2022/06/11 05:50:47;;;;;;;;;;;;;;;25.91;40.86;101306.50;4975678;28;97941;-61
2022/06/11 05:53:14;;;;;;;;;;;;;;;27.53;39.20;101307.44;4982521;28;99050;-62
2022/06/11 05:55:41;;;;;;;;;;;;;;;28.99;37.42;101314.19;4993412;28;97720;-66
2022/06/11 05:58:09;;;;;;;;;;;;;;;30.24;36.40;101307.50;4992537;28;98765;-66
2022/06/11 06:00:35;;;;;;;;;;;;;;;30.36;36.61;101323.13;5011516;28;125905;-66
2022/06/11 06:03:01;;;;;;;;;;;;;;;30.18;37.51;101309.03;5003289;28;122291;-62
2022/06/11 06:05:28;;;;;;;;;;;;;;;31.09;36.20;101310.25;4993384;28;108267;-62
2022/06/11 06:07:54;;;;;;;;;;;;;;;33.36;32.88;101311.16;4993209;28;97712;-61
2022/06/11 06:10:20;;;;;;;;;;;;;;;34.71;31.66;101303.28;5001737;28;98114;-66
2022/06/11 06:12:46;;;;;;;;;;;;;;;34.95;31.08;101314.66;4994090;28;98482;-61
2022/06/11 06:15:15;;;;;;;;;;;;;;;34.23;31.79;101306.78;4996608;28;116374;-61
2022/06/11 06:17:41;;;;;;;;;;;;;;;35.14;30.73;101305.69;4991047;28;108087;-61
2022/06/11 06:20:09;;;;;;;;;;;;;;;36.15;29.13;101297.63;4997253;28;121565;-66
2022/06/11 06:22:35;;;;;;;;;;;;;;;35.50;29.73;101294.88;4993065;28;97914;-66
2022/06/11 06:25:01;;;;;;;;;;;;;;;36.91;28.02;101294.38;4992738;28;115173;-62
2022/06/11 06:27:27;;;;;;;;;;;;;;;36.96;27.50;101291.09;4993143;28;97609;-62
2022/06/11 06:29:53;;;;;;;;;;;;;;;36.98;26.86;101292.28;4996906;28;127350;-66
2022/06/11 06:32:19;;;;;;;;;;;;;;;37.12;26.71;101284.78;4992412;28;126441;-66
2022/06/11 06:34:45;;;;;;;;;;;;;;;37.67;26.52;101286.88;4984071;28;113425;-66
2022/06/11 06:37:11;;;;;;;;;;;;;;;36.41;27.04;101287.59;4994791;28;127907;-62
2022/06/11 06:39:37;;;;;;;;;;;;;;;35.58;27.61;101281.56;4991614;28;98164;-66
2022/06/11 06:42:03;;;;;;;;;;;;;;;34.80;27.89;101278.38;4992547;28;127337;-65
2022/06/11 06:44:29;;;;;;;;;;;;;;;34.31;28.63;101276.78;4993892;28;97618;-61
2022/06/11 06:46:55;;;;;;;;;;;;;;;34.17;28.43;101281.28;4993900;28;127501;-66
2022/06/11 06:49:21;;;;;;;;;;;;;;;34.13;29.03;101274.91;4992539;28;126622;-67
2022/06/11 06:51:47;;;;;;;;;;;;;;;34.06;28.74;101272.16;4994078;28;98048;-61
2022/06/11 06:54:13;;;;;;;;;;;;;;;34.01;28.47;101275.41;4998732;28;97658;-61
2022/06/11 06:56:39;;;;;;;;;;;;;;;34.00;28.78;101268.22;4975530;28;99496;-61
2022/06/11 06:59:05;;;;;;;;;;;;;;;34.02;28.57;101263.00;4991625;28;129169;-62
2022/06/11 07:01:31;;;;;;;;;;;;;;;34.08;28.68;101269.75;4994914;28;97791;-61
2022/06/11 07:03:57;;;;;;;;;;;;;;;34.18;29.10;101271.66;4993279;28;97984;-61
2022/06/11 07:06:23;;;;;;;;;;;;;;;34.34;28.82;101271.16;4991536;28;126309;-61
2022/06/11 07:08:53;;;;;;;;;;;;;;;34.50;28.77;101267.06;4991087;28;101853;-66
2022/06/11 07:11:19;;;;;;;;;;;;;;;34.68;27.99;101270.50;5000030;28;98004;-61
2022/06/11 07:13:45;;;;;;;;;;;;;;;34.84;27.89;101269.97;4999192;28;97644;-66
2022/06/11 07:16:13;;;;;;;;;;;;;;;35.00;28.30;101269.44;4992103;28;97783;-61
2022/06/11 07:18:59;;;;;;;;;;;;;;;35.11;28.06;101262.50;4990364;28;123437;-61
2022/06/11 07:21:29;;;;;;;;;;;;;;;35.29;27.93;101264.28;4991545;28;97154;-61
2022/06/11 07:24:00;;;;;;;;;;;;;;;35.47;27.35;101261.28;4980361;28;97227;-62
2022/06/11 07:26:34;;;;;;;;;;;;;;;35.65;27.46;101261.88;4991121;28;98072;-62
2022/06/11 07:29:16;;;;;;;;;;;;;;;35.78;27.30;101262.09;4990543;28;98667;-66
2022/06/11 07:31:44;;;;;;;;;;;;;;;35.85;27.03;101248.75;4992104;28;104331;-66
2022/06/11 07:34:11;;;;;;;;;;;;;;;35.98;26.71;101257.41;4993374;28;97693;-61
2022/06/11 07:36:37;;;;;;;;;;;;;;;36.12;26.69;101257.19;4990651;28;126074;-61
2022/06/11 07:39:03;;;;;;;;;;;;;;;36.29;26.65;101257.34;4995834;28;97979;-67
2022/06/11 07:41:29;;;;;;;;;;;;;;;36.43;26.27;101245.06;4992935;28;126324;-62
2022/06/11 07:43:55;;;;;;;;;;;;;;;36.54;25.98;101249.31;4993794;28;97377;-67
2022/06/11 07:46:21;;;;;;;;;;;;;;;36.66;26.12;101258.31;4994568;28;98863;-67
2022/06/11 07:48:48;;;;;;;;;;;;;;;36.83;25.49;101251.63;4995009;28;120420;-61
2022/06/11 07:51:18;;;;;;;;;;;;;;;37.12;25.54;101251.09;4992790;28;98475;-62
2022/06/11 07:53:45;;;;;;;;;;;;;;;37.43;25.49;101254.47;4992053;28;98124;-61
2022/06/11 07:56:11;;;;;;;;;;;;;;;37.81;25.30;101252.81;4992254;28;126120;-67
2022/06/11 07:58:37;;;;;;;;;;;;;;;38.22;24.71;101257.09;4992540;28;128311;-67
2022/06/11 08:01:03;;;;;;;;;;;;;;;38.67;24.68;101256.38;4999618;28;99167;-62
2022/06/11 08:03:31;;;;;;;;;;;;;;;39.13;23.67;101248.69;4991352;28;118703;-62
2022/06/11 08:05:57;;;;;;;;;;;;;;;39.55;23.35;101250.72;4991700;28;99026;-67
2022/06/11 08:08:24;;;;;;;;;;;;;;;39.99;22.54;101246.91;4995590;28;98343;-67
2022/06/11 08:10:50;;;;;;;;;;;;;;;40.36;22.33;101252.97;4993260;28;98264;-61
2022/06/11 08:13:16;;;;;;;;;;;;;;;40.83;21.64;101252.16;4992856;28;97557;-62
2022/06/11 08:15:45;;;;;;;;;;;;;;;41.35;20.92;101249.91;4992444;28;98757;-62
2022/06/11 08:18:11;;;;;;;;;;;;;;;41.83;20.91;101248.44;4992840;28;115881;-62
2022/06/11 08:20:37;;;;;;;;;;;;;;;42.34;19.94;101245.13;4993141;28;98506;-67
2022/06/11 08:23:04;;;;;;;;;;;;;;;42.98;19.62;101241.53;4991764;28;97462;-62
2022/06/11 08:25:30;;;;;;;;;;;;;;;43.33;18.85;101241.97;4992829;28;98185;-69
2022/06/11 08:27:56;;;;;;;;;;;;;;;43.75;18.61;101229.06;4989760;28;98210;-67
2022/06/11 08:30:23;;;;;;;;;;;;;;;44.25;18.31;101238.72;4994989;27;103580;-65
2022/06/11 08:32:49;;;;;;;;;;;;;;;44.55;17.68;101236.78;4997186;28;97401;-62
2022/06/11 08:35:15;;;;;;;;;;;;;;;44.90;17.81;101233.34;4992269;28;98689;-62
2022/06/11 08:37:41;;;;;;;;;;;;;;;45.35;17.40;101227.66;4992055;28;106750;-62
2022/06/11 08:40:13;;;;;;;;;;;;;;;45.57;17.33;101227.28;4992825;28;98143;-62
2022/06/11 08:42:42;;;;;;;;;;;;;;;45.84;17.08;101223.31;4992230;28;97622;-62
2022/06/11 08:45:19;;;;;;;;;;;;;;;46.05;16.44;101218.41;4974464;28;98203;-67
2022/06/11 08:47:50;;;;;;;;;;;;;;;44.06;17.74;101212.53;4980048;28;107604;-67
2022/06/11 08:50:19;;;;;;;;;;;;;;;41.95;18.49;101209.19;4991723;28;120739;-67
2022/06/11 08:52:45;;;;;;;;;;;;;;;41.67;18.70;101207.03;4974012;28;97529;-67
2022/06/11 08:55:11;;;;;;;;;;;;;;;40.94;19.23;101201.72;4996636;28;128176;-67
2022/06/11 08:57:50;;;;;;;;;;;;;;;39.38;20.07;101197.28;4993804;28;98536;-68
2022/06/11 09:00:22;;;;;;;;;;;;;;;38.02;21.09;101202.94;4990736;28;98530;-67
2022/06/11 09:03:06;;;;;;;;;;;;;;;36.94;21.58;101196.03;4997530;28;97551;-66
2022/06/11 09:06:00;;;;;;;;;;;;;;;36.99;21.68;101198.38;4993288;28;98805;-61
2022/06/11 09:08:32;;;;;;;;;;;;;;;37.52;21.46;101204.88;4988979;28;124280;-67
2022/06/11 09:11:12;;;;;;;;;;;;;;;38.78;20.92;101209.03;4986698;28;98709;-69
2022/06/11 09:14:06;;;;;;;;;;;;;;;38.10;21.07;101209.19;4991058;28;105231;-62
2022/06/11 09:17:01;;;;;;;;;;;;;;;37.23;22.01;101201.09;4993802;28;98046;-62
2022/06/11 09:19:39;;;;;;;;;;;;;;;36.20;22.79;101193.38;4999094;28;97648;-67
2022/06/11 09:22:30;;;;;;;;;;;;;;;35.44;23.22;101189.25;4992830;28;105193;-62
2022/06/11 09:25:24;;;;;;;;;;;;;;;34.77;23.86;101195.25;4993030;28;112337;-62
2022/06/11 09:27:58;;;;;;;;;;;;;;;34.20;24.11;101193.75;4993761;28;98797;-61
2022/06/11 09:30:34;;;;;;;;;;;;;;;34.59;23.71;101194.66;4988388;28;97911;-62
2022/06/11 09:33:20;;;;;;;;;;;;;;;33.84;23.84;101203.56;4977667;28;97976;-62
2022/06/11 09:35:55;;;;;;;;;;;;;;;33.26;24.88;101203.09;4992529;28;117509;-62
2022/06/11 09:38:43;;;;;;;;;;;;;;;32.78;25.06;101194.41;4994895;28;112254;-68
2022/06/11 09:41:25;;;;;;;;;;;;;;;32.32;25.59;101198.84;5001741;28;101952;-62
2022/06/11 09:43:56;;;;;;;;;;;;;;;32.00;25.82;101198.84;4994771;28;97843;-61
2022/06/11 09:46:30;;;;;;;;;;;;;;;31.77;25.94;101199.19;4997176;28;115314;-67
2022/06/11 09:49:15;;;;;;;;;;;;;;;31.61;26.03;101195.97;4976863;28;126472;-62
2022/06/11 09:52:07;;;;;;;;;;;;;;;31.49;26.33;101195.13;4993010;28;125765;-62
2022/06/11 09:54:47;;;;;;;;;;;;;;;32.29;25.60;101196.06;4997391;28;97732;-68
2022/06/11 09:57:32;;;;;;;;;;;;;;;32.11;26.07;101205.22;4992277;28;115025;-67
2022/06/11 10:00:02;;;;;;;;;;;;;;;32.02;26.09;101197.25;5000229;28;101774;-62
2022/06/11 10:05:25;;;;;;;;;;;;;;;34.18;24.40;101198.16;4972496;28;97938;-67
2022/06/11 10:07:53;;;;;;;;;;;;;;;32.98;25.81;101206.78;4976611;28;97718;-67
2022/06/11 10:10:27;;;;;;;;;;;;;;;32.57;26.01;101198.84;4985894;28;97891;-62
2022/06/11 10:12:56;;;;;;;;;;;;;;;32.16;26.35;101201.25;4991188;28;127651;-67
2022/06/11 10:15:27;;;;;;;;;;;;;;;31.81;26.25;101193.63;4980088;28;109815;-67
2022/06/11 10:18:21;;;;;;;;;;;;;;;31.65;26.50;101197.56;4993504;28;97695;-62
2022/06/11 10:20:51;;;;;;;;;;;;;;;32.50;25.61;101198.84;4989981;28;105824;-67
2022/06/11 10:23:45;;;;;;;;;;;;;;;33.04;25.47;101194.00;4989722;28;128866;-67
2022/06/11 10:26:28;;;;;;;;;;;;;;;32.21;26.04;101192.47;4993294;28;97657;-62
2022/06/11 10:29:07;;;;;;;;;;;;;;;31.74;26.77;101192.41;4987442;28;112521;-67
2022/06/11 10:31:40;;;;;;;;;;;;;;;31.24;26.91;101199.75;4995517;28;105855;-67
2022/06/11 10:34:21;;;;;;;;;;;;;;;30.83;27.19;101197.19;4985967;28;98124;-62
2022/06/11 10:37:10;;;;;;;;;;;;;;;30.47;27.77;101187.78;4990825;28;98234;-62
2022/06/11 10:39:57;;;;;;;;;;;;;;;30.17;27.86;101185.16;5001039;28;97624;-62
2022/06/11 10:42:39;;;;;;;;;;;;;;;29.93;28.09;101183.72;4971750;28;125154;-67
2022/06/11 10:45:05;;;;;;;;;;;;;;;29.74;28.36;101190.25;4989712;28;124032;-67
2022/06/11 10:47:38;;;;;;;;;;;;;;;29.65;28.61;101190.56;4995775;28;124831;-67
2022/06/11 10:50:13;;;;;;;;;;;;;;;29.66;28.85;101186.59;4994993;28;113120;-67
2022/06/11 10:52:49;;;;;;;;;;;;;;;29.72;28.34;101178.75;4992007;28;98026;-67
2022/06/11 10:55:24;;;;;;;;;;;;;;;29.85;28.47;101188.41;5013179;27;98622;-62
2022/06/11 10:57:51;;;;;;;;;;;;;;;29.92;28.48;101173.78;4975259;28;112510;-69
2022/06/11 11:00:39;;;;;;;;;;;;;;;29.83;28.55;101182.44;4978812;28;108197;-67
2022/06/11 11:03:12;;;;;;;;;;;;;;;29.71;28.66;101177.94;4983583;28;117137;-62
2022/06/11 11:05:51;;;;;;;;;;;;;;;29.69;28.52;101176.72;4975122;28;126652;-67
2022/06/11 11:08:17;;;;;;;;;;;;;;;29.91;28.25;101181.31;4992335;28;97261;-62
2022/06/11 11:10:48;;;;;;;;;;;;;;;31.76;26.56;101176.09;4993727;28;97585;-62
2022/06/11 11:13:38;;;;;;;;;;;;;;;34.76;24.46;101179.66;4993586;28;98641;-68
2022/06/11 11:16:15;;;;;;;;;;;;;;;36.81;22.92;101183.84;4992233;28;98140;-68
2022/06/11 11:19:06;;;;;;;;;;;;;;;36.55;23.13;101179.94;4998424;28;98128;-68
2022/06/11 11:21:34;;;;;;;;;;;;;;;35.85;23.60;101181.47;4988852;28;97363;-68
2022/06/11 11:24:12;;;;;;;;;;;;;;;36.88;22.59;101175.28;4991788;28;98536;-68
2022/06/11 11:26:54;;;;;;;;;;;;;;;35.58;23.80;101172.28;4975048;28;111260;-67
2022/06/11 11:29:21;;;;;;;;;;;;;;;34.77;23.99;101177.66;4996969;28;127209;-67
2022/06/11 11:31:49;;;;;;;;;;;;;;;34.14;24.21;101175.03;4993495;28;114873;-62
2022/06/11 11:34:21;;;;;;;;;;;;;;;33.74;25.13;101176.53;4990744;28;101219;-67
2022/06/11 11:36:47;;;;;;;;;;;;;;;33.64;24.88;101169.78;4993845;28;102429;-62
2022/06/11 11:39:13;;;;;;;;;;;;;;;33.82;24.74;101170.47;4991424;28;124809;-67
2022/06/11 11:41:58;;;;;;;;;;;;;;;34.72;24.06;101169.72;4993083;28;97573;-67
2022/06/11 11:44:24;;;;;;;;;;;;;;;35.09;23.71;101154.91;4992921;28;98173;-62
2022/06/11 11:46:55;;;;;;;;;;;;;;;35.05;23.53;101154.94;4992961;28;98705;-69
2022/06/11 11:49:29;;;;;;;;;;;;;;;34.97;23.47;101161.81;4992167;28;98593;-67
2022/06/11 11:52:24;;;;;;;;;;;;;;;35.24;23.33;101159.09;4991769;28;101155;-62
2022/06/11 11:55:11;;;;;;;;;;;;;;;35.37;23.29;101157.34;4981373;28;98059;-62
2022/06/11 11:57:36;;;;;;;;;;;;;;;35.41;23.86;101151.66;4942395;28;99581;-62
2022/06/11 12:00:22;;;;;;;;;;;;;;;35.62;23.66;101156.22;4997279;28;124825;-62
2022/06/11 12:02:48;;;;;;;;;;;;;;;35.47;23.58;101143.59;4991047;28;104406;-67
2022/06/11 12:05:25;;;;;;;;;;;;;;;35.61;23.58;101149.81;4995869;28;100269;-62
2022/06/11 12:07:52;;;;;;;;;;;;;;;35.78;23.27;101142.34;4993135;28;97524;-63
2022/06/11 12:10:38;;;;;;;;;;;;;;;36.46;22.54;101146.03;4994143;28;98606;-62
2022/06/11 12:13:18;;;;;;;;;;;;;;;35.58;23.54;101139.44;4993058;28;98035;-62
2022/06/11 12:15:54;;;;;;;;;;;;;;;34.93;23.43;101133.06;4975912;28;98693;-62
2022/06/11 12:18:21;;;;;;;;;;;;;;;34.28;23.79;101135.75;4995356;28;98593;-61
2022/06/11 12:20:51;;;;;;;;;;;;;;;33.74;24.13;101140.19;4973949;28;98360;-67
2022/06/11 12:23:39;;;;;;;;;;;;;;;33.23;24.64;101134.88;4997983;28;101058;-67
2022/06/11 12:26:16;;;;;;;;;;;;;;;32.84;25.02;101137.81;4975717;28;98578;-62
2022/06/11 12:28:47;;;;;;;;;;;;;;;32.66;25.07;101137.06;4992756;28;97760;-62
2022/06/11 12:31:13;;;;;;;;;;;;;;;32.66;24.96;101134.25;4993625;28;97965;-61
2022/06/11 12:33:43;;;;;;;;;;;;;;;32.69;25.28;101137.03;4991070;28;111251;-67
2022/06/11 12:36:12;;;;;;;;;;;;;;;32.66;25.51;101142.63;4990007;28;98908;-62
2022/06/11 12:38:51;;;;;;;;;;;;;;;32.80;25.29;101139.03;4989782;28;98803;-61
2022/06/11 12:41:41;;;;;;;;;;;;;;;33.11;24.97;101138.13;4991229;28;122528;-62
2022/06/11 12:44:25;;;;;;;;;;;;;;;34.69;23.88;101130.16;4991713;28;116687;-66
2022/06/11 12:47:17;;;;;;;;;;;;;;;36.05;22.93;101142.31;4992377;28;98748;-67
2022/06/11 12:50:05;;;;;;;;;;;;;;;37.19;22.14;101138.56;4975617;28;124869;-62
2022/06/11 12:52:45;;;;;;;;;;;;;;;36.26;22.95;101140.34;4983839;28;97471;-67
2022/06/11 12:55:21;;;;;;;;;;;;;;;35.66;23.34;101134.53;4994015;28;97552;-61
2022/06/11 12:58:08;;;;;;;;;;;;;;;35.30;23.32;101140.63;5011002;27;98601;-68
2022/06/11 13:00:40;;;;;;;;;;;;;;;35.03;23.88;101131.41;4988803;28;122775;-61